Main page
METAR-TAF:

METAR-TAF

Airports :

Çiğli Air Base

Izmir, Turkey

latitude: 38-30N, longitude: 027-01E, elevation: 5 m

METAR: missing

Time: 15:57 (12:57 UTC)

Forecast

The report was made 2 hours and 17 minutes ago, at 10:40 UTC
Forecast valid from 22 at 12 UTC to 22 at 21 UTC
Wind 15 kt from the North
Visibility 10 km or more
no clouds below 1500 m and no cumulonimbus
Temporary
from 22 at 14 UTC to 22 at 18 UTC
Wind 18 kt from the North with gusts up to 28 kt
Becoming
from 22 at 19 UTC to 22 at 21 UTC
Wind 5 kt from the North

TAF: LTBL 221040Z 2212/2221 35015KT CAVOK TEMPO 2214/2218 35018G28KT BECMG 2219/2221 35005KT

Weather observations and forecasts of more than 4000 airports (METAR and TAF reports).

The available stations are represented by yellow and red dots on the map.

Hover mouse over dot to see the name of the station.

Then click to see weather observations and forecasts.

To change the map : click on the green buttons with a black cross to zoom in, on the green button with a dash to zoom out, or on the green arrows for adjacent maps.


METAR-TAF: